Time;durP1;ratioP1;P1;durP2;ratioP2;P2;SDS_P1;SDS_P2;PMS_P1;PMS_P2;Temp;Humidity;BMP_temperature;BMP_pressure;BME280_temperature;BME280_humidity;BME280_pressure;Samples;Min_cycle;Max_cycle;Signal;HPM_P1;HPM_P2
2021/08/29 00:01:06;;;;;;;3.67;3.47;;;18.80;59.30;;;;;;5051105;28;20040;-85
2021/08/29 00:03:32;;;;;;;3.70;3.50;;;18.80;59.40;;;;;;5050533;28;20386;-82
2021/08/29 00:05:59;;;;;;;3.22;3.13;;;18.70;59.40;;;;;;5055314;28;20033;-83
2021/08/29 00:08:25;;;;;;;3.75;3.55;;;18.70;59.40;;;;;;5054196;28;20047;-83
2021/08/29 00:10:51;;;;;;;3.05;2.95;;;18.70;59.50;;;;;;5054546;28;20052;-83
2021/08/29 00:13:17;;;;;;;5.88;3.88;;;18.70;59.60;;;;;;5054253;28;20021;-83
2021/08/29 00:15:43;;;;;;;3.63;3.45;;;18.60;59.60;;;;;;5048167;28;20041;-83
2021/08/29 00:18:09;;;;;;;3.30;3.20;;;18.60;59.60;;;;;;5055119;28;20041;-82
2021/08/29 00:20:35;;;;;;;3.28;3.17;;;18.60;59.70;;;;;;5054601;28;20398;-80
2021/08/29 00:23:01;;;;;;;3.08;2.97;;;18.60;59.70;;;;;;5052823;28;20029;-83
2021/08/29 00:25:28;;;;;;;3.60;3.40;;;18.50;59.80;;;;;;5054254;28;20020;-83
2021/08/29 00:27:54;;;;;;;3.45;3.25;;;18.50;59.90;;;;;;5048378;28;20398;-83
2021/08/29 00:30:20;;;;;;;3.40;3.30;;;18.40;60.00;;;;;;5054124;28;20032;-83
2021/08/29 00:32:46;;;;;;;3.53;3.33;;;18.40;60.20;;;;;;5054925;28;20037;-85
2021/08/29 00:35:12;;;;;;;3.45;3.25;;;18.30;60.20;;;;;;5052857;28;20037;-84
2021/08/29 00:37:38;;;;;;;3.45;3.25;;;18.30;60.40;;;;;;5053900;28;20474;-82
2021/08/29 00:40:05;;;;;;;3.10;3.00;;;18.20;60.40;;;;;;5049864;28;20029;-83
2021/08/29 00:42:31;;;;;;;3.35;3.17;;;18.20;60.40;;;;;;5051536;28;20474;-82
2021/08/29 00:44:57;;;;;;;3.30;3.10;;;18.20;60.40;;;;;;5058766;28;20417;-83
2021/08/29 00:47:23;;;;;;;3.42;3.22;;;18.20;60.50;;;;;;5057314;28;20040;-83
2021/08/29 00:49:50;;;;;;;7.28;3.40;;;18.10;60.80;;;;;;5056350;28;20453;-83
2021/08/29 00:52:16;;;;;;;3.38;3.17;;;18.10;60.80;;;;;;5057026;28;20025;-83
2021/08/29 00:54:42;;;;;;;3.03;2.92;;;18.10;60.80;;;;;;5052282;28;20370;-83
2021/08/29 00:57:09;;;;;;;8.20;3.28;;;18.10;60.80;;;;;;5059749;28;20037;-83
2021/08/29 00:59:39;;;;;;;3.40;3.20;;;18.10;60.80;;;;;;5057686;28;20033;-83
2021/08/29 01:02:12;;;;;;;3.15;3.05;;;18.00;60.90;;;;;;5039536;28;20040;-83
2021/08/29 01:05:11;;;;;;;3.00;2.90;;;18.00;60.90;;;;;;5057000;28;20037;-82
2021/08/29 01:08:02;;;;;;;2.88;2.78;;;18.00;61.00;;;;;;5051728;28;20050;-82
2021/08/29 01:10:40;;;;;;;3.00;2.90;;;17.90;61.00;;;;;;5056226;28;20032;-83
2021/08/29 01:13:33;;;;;;;2.85;2.75;;;17.90;61.00;;;;;;5055599;28;20021;-83
2021/08/29 01:16:06;;;;;;;3.08;2.88;;;17.90;60.90;;;;;;5037218;28;20064;-83
2021/08/29 01:18:33;;;;;;;3.13;3.03;;;17.90;60.90;;;;;;5037426;28;20033;-82
2021/08/29 01:21:03;;;;;;;2.72;2.63;;;17.90;60.90;;;;;;5089640;28;20028;-83
2021/08/29 01:23:30;;;;;;;3.10;3.00;;;17.90;61.00;;;;;;5055825;28;20021;-83
2021/08/29 01:26:05;;;;;;;10.18;3.60;;;17.90;61.00;;;;;;5055922;28;20400;-81
2021/08/29 01:28:53;;;;;;;3.00;2.90;;;17.90;61.10;;;;;;5039983;28;20017;-83
2021/08/29 01:31:19;;;;;;;3.20;3.00;;;17.90;61.20;;;;;;5039473;28;20047;-83
2021/08/29 01:33:46;;;;;;;3.00;2.80;;;17.80;61.10;;;;;;5050688;28;20040;-83
2021/08/29 01:36:14;;;;;;;2.90;2.80;;;17.80;61.20;;;;;;5065012;28;20056;-83
2021/08/29 01:38:40;;;;;;;3.28;3.13;;;17.80;61.30;;;;;;5039218;28;20033;-83
2021/08/29 01:41:06;;;;;;;2.80;2.70;;;17.70;61.40;;;;;;5038992;28;20381;-83
2021/08/29 01:43:32;;;;;;;2.47;2.38;;;17.70;61.40;;;;;;5055519;28;20024;-83
2021/08/29 01:45:59;;;;;;;2.80;2.70;;;17.70;61.40;;;;;;5020773;28;20029;-83
2021/08/29 01:48:25;;;;;;;3.40;3.22;;;17.70;61.50;;;;;;5054422;28;20035;-83
2021/08/29 01:50:51;;;;;;;2.60;2.50;;;17.70;61.70;;;;;;5073171;28;20048;-83
2021/08/29 01:53:17;;;;;;;3.28;3.08;;;17.60;61.70;;;;;;5055209;28;20029;-83
2021/08/29 01:55:43;;;;;;;2.95;2.83;;;17.60;61.80;;;;;;5055144;28;20037;-83
2021/08/29 01:58:09;;;;;;;3.05;2.95;;;17.60;62.10;;;;;;5053587;28;20028;-83
2021/08/29 02:00:59;;;;;;;2.83;2.72;;;17.50;62.10;;;;;;5049404;28;20048;-83
2021/08/29 02:03:25;;;;;;;2.67;2.58;;;17.50;62.10;;;;;;5043886;28;20021;-83
2021/08/29 02:05:54;;;;;;;2.95;2.85;;;17.50;62.10;;;;;;5048807;28;20379;-79
2021/08/29 02:08:20;;;;;;;2.50;2.40;;;17.50;62.10;;;;;;5026486;28;20025;-83
2021/08/29 02:10:50;;;;;;;2.80;2.70;;;17.50;62.10;;;;;;5026370;28;20025;-82
2021/08/29 02:13:16;;;;;;;23.05;3.08;;;17.40;62.00;;;;;;5047191;28;20029;-83
2021/08/29 02:15:52;;;;;;;3.17;2.80;;;17.50;62.10;;;;;;5030932;28;20040;-82
2021/08/29 02:18:18;;;;;;;2.83;2.72;;;17.50;62.10;;;;;;5059090;28;20025;-82
2021/08/29 02:20:46;;;;;;;2.50;2.40;;;17.50;62.20;;;;;;5037115;28;20045;-83
2021/08/29 02:23:13;;;;;;;2.72;2.63;;;17.40;62.30;;;;;;5026391;28;20024;-83
2021/08/29 02:25:39;;;;;;;2.97;2.88;;;17.40;62.40;;;;;;5043913;28;20037;-83
2021/08/29 02:28:06;;;;;;;2.92;2.83;;;17.40;62.40;;;;;;5033936;28;20486;-83
2021/08/29 02:30:32;;;;;;;2.85;2.75;;;17.40;62.50;;;;;;5031990;28;20034;-83
2021/08/29 02:32:58;;;;;;;2.85;2.75;;;17.40;62.50;;;;;;5035632;28;20558;-82
2021/08/29 02:35:24;;;;;;;2.80;2.70;;;17.40;62.50;;;;;;5036206;28;20037;-81
2021/08/29 02:37:50;;;;;;;2.97;2.80;;;17.40;62.50;;;;;;5052452;28;20481;-83
2021/08/29 02:40:16;;;;;;;3.20;3.05;;;17.40;62.50;;;;;;5054394;28;20028;-83
2021/08/29 02:42:43;;;;;;;2.60;2.50;;;17.30;62.50;;;;;;5033797;28;20065;-82
2021/08/29 02:45:10;;;;;;;2.75;2.65;;;17.30;62.50;;;;;;5055800;28;20052;-82
2021/08/29 02:47:36;;;;;;;3.10;3.00;;;17.30;62.70;;;;;;5053878;28;20025;-83
2021/08/29 02:50:02;;;;;;;6.13;3.17;;;17.30;62.70;;;;;;5054269;28;20033;-83
2021/08/29 02:52:28;;;;;;;2.85;2.70;;;17.30;62.80;;;;;;5055563;28;20035;-79
2021/08/29 02:54:54;;;;;;;3.10;2.97;;;17.20;62.90;;;;;;5052394;28;20398;-83
2021/08/29 02:57:21;;;;;;;3.05;2.92;;;17.20;63.00;;;;;;5054336;28;20033;-83
2021/08/29 02:59:47;;;;;;;3.05;2.60;;;17.10;63.10;;;;;;5054548;28;20391;-83
2021/08/29 03:02:13;;;;;;;2.55;2.45;;;17.10;63.30;;;;;;5054548;28;20033;-83
2021/08/29 03:04:39;;;;;;;3.22;3.03;;;17.10;63.40;;;;;;5052526;28;20409;-83
2021/08/29 03:07:06;;;;;;;2.72;2.63;;;17.00;63.50;;;;;;5051740;28;20028;-83
2021/08/29 03:09:35;;;;;;;2.90;2.80;;;17.00;63.70;;;;;;5051223;28;20036;-83
2021/08/29 03:12:09;;;;;;;2.33;2.22;;;16.90;63.80;;;;;;5056948;28;20033;-83
2021/08/29 03:14:36;;;;;;;2.70;2.60;;;16.90;63.90;;;;;;5033778;28;20029;-83
2021/08/29 03:17:02;;;;;;;2.78;2.63;;;16.90;64.00;;;;;;5053144;28;20033;-83
2021/08/29 03:19:28;;;;;;;4.53;2.72;;;16.80;64.10;;;;;;5053798;28;20044;-83
2021/08/29 03:21:55;;;;;;;2.78;2.67;;;16.80;64.10;;;;;;5051687;28;20033;-83
2021/08/29 03:24:21;;;;;;;3.05;2.95;;;16.80;64.10;;;;;;5055093;28;20385;-83
2021/08/29 03:26:47;;;;;;;2.75;2.65;;;16.80;64.20;;;;;;5055701;28;20401;-82
2021/08/29 03:29:14;;;;;;;2.42;2.33;;;16.70;64.10;;;;;;5053801;28;20028;-83
2021/08/29 03:31:40;;;;;;;2.80;2.70;;;16.70;64.20;;;;;;5054124;28;20040;-83
2021/08/29 03:34:06;;;;;;;2.80;2.70;;;16.70;64.30;;;;;;5051820;28;20410;-83
2021/08/29 03:36:33;;;;;;;3.03;2.83;;;16.70;64.30;;;;;;5050748;28;20052;-83
2021/08/29 03:39:02;;;;;;;4.95;3.20;;;16.70;64.40;;;;;;5055674;28;20390;-83
2021/08/29 03:41:29;;;;;;;3.63;3.28;;;16.60;64.50;;;;;;5054794;28;20040;-85
2021/08/29 03:43:55;;;;;;;2.67;2.58;;;16.60;64.50;;;;;;5052032;28;20028;-84
2021/08/29 03:46:22;;;;;;;2.90;2.72;;;16.60;64.60;;;;;;5053951;28;20473;-85
2021/08/29 03:48:48;;;;;;;2.75;2.65;;;16.60;64.50;;;;;;5032761;28;20390;-84
2021/08/29 03:51:15;;;;;;;2.75;2.58;;;16.60;64.60;;;;;;5055466;28;20025;-85
2021/08/29 03:53:42;;;;;;;2.42;2.33;;;16.60;64.60;;;;;;5022132;28;20048;-85
2021/08/29 03:56:09;;;;;;;2.22;2.13;;;16.60;64.60;;;;;;5054576;28;20033;-85
2021/08/29 03:58:35;;;;;;;2.30;2.20;;;16.60;64.50;;;;;;5053555;28;20032;-85
2021/08/29 04:01:02;;;;;;;2.38;2.28;;;16.60;64.50;;;;;;5050045;28;20025;-84
2021/08/29 04:03:28;;;;;;;2.72;2.53;;;16.60;64.50;;;;;;5053336;28;20398;-85
2021/08/29 04:05:55;;;;;;;2.88;2.67;;;16.60;64.50;;;;;;5056262;28;20021;-84
2021/08/29 04:08:26;;;;;;;2.55;2.45;;;16.60;64.50;;;;;;5054507;28;20024;-85
2021/08/29 04:10:53;;;;;;;;;;;16.70;64.60;;;;;;5037512;28;20048;-85
2021/08/29 04:13:18;;;;;;;2.85;2.67;;;16.60;65.50;;;;;;5052857;28;20369;-85
2021/08/29 04:15:45;;;;;;;2.72;2.63;;;16.60;64.60;;;;;;5048319;28;20097;-85
2021/08/29 04:18:11;;;;;;;2.75;2.63;;;16.50;64.70;;;;;;5038876;28;20425;-85
2021/08/29 04:20:37;;;;;;;2.75;2.65;;;16.50;64.90;;;;;;5057178;28;20029;-85
2021/08/29 04:23:04;;;;;;;2.95;2.83;;;16.50;65.00;;;;;;5055209;28;20045;-84
2021/08/29 04:25:30;;;;;;;2.70;2.60;;;16.50;64.90;;;;;;5058175;28;20029;-85
2021/08/29 04:27:57;;;;;;;2.58;2.47;;;16.50;65.00;;;;;;5054876;28;20036;-85
2021/08/29 04:30:23;;;;;;;2.58;2.47;;;16.40;65.10;;;;;;5039705;28;20037;-83
2021/08/29 04:32:49;;;;;;;2.70;2.60;;;16.40;65.20;;;;;;5058779;28;20470;-85
2021/08/29 04:35:15;;;;;;;6.88;2.55;;;16.40;65.30;;;;;;5041929;28;20045;-84
2021/08/29 04:37:41;;;;;;;2.47;2.38;;;16.40;65.30;;;;;;5057895;28;20032;-85
2021/08/29 04:40:08;;;;;;;2.55;2.45;;;16.40;65.40;;;;;;5056391;28;20039;-84
2021/08/29 04:42:34;;;;;;;4.35;3.95;;;16.40;65.50;;;;;;5054734;28;20385;-85
2021/08/29 04:45:00;;;;;;;3.10;3.00;;;16.30;65.50;;;;;;5060022;28;20040;-85
2021/08/29 04:47:26;;;;;;;2.65;2.55;;;16.20;65.80;;;;;;5041266;28;20425;-85
2021/08/29 04:49:52;;;;;;;2.58;2.47;;;16.20;65.90;;;;;;5057879;28;20025;-86
2021/08/29 04:52:18;;;;;;;2.97;2.78;;;16.20;66.00;;;;;;5057964;28;20496;-86
2021/08/29 04:54:44;;;;;;;2.50;2.40;;;16.20;66.00;;;;;;5053235;28;20017;-83
2021/08/29 04:57:10;;;;;;;2.70;2.60;;;16.20;66.20;;;;;;5059204;28;20029;-85
2021/08/29 04:59:36;;;;;;;3.03;2.83;;;16.20;66.10;;;;;;5057666;28;20033;-85
2021/08/29 05:02:03;;;;;;;3.15;2.95;;;16.10;66.00;;;;;;5054640;28;20029;-85
2021/08/29 05:04:29;;;;;;;2.97;2.78;;;16.20;66.10;;;;;;5057488;28;20033;-85
2021/08/29 05:06:55;;;;;;;3.28;2.88;;;16.20;66.10;;;;;;5054102;28;20025;-85
2021/08/29 05:09:21;;;;;;;2.28;2.17;;;16.10;66.10;;;;;;5057487;28;20056;-84
2021/08/29 05:11:47;;;;;;;2.45;2.35;;;16.10;66.20;;;;;;5056391;28;20028;-84
2021/08/29 05:14:13;;;;;;;2.63;2.53;;;16.10;66.20;;;;;;5056287;28;20029;-85
2021/08/29 05:16:39;;;;;;;2.42;2.33;;;16.10;66.20;;;;;;5056798;28;20041;-86
2021/08/29 05:19:05;;;;;;;2.42;2.33;;;16.10;66.20;;;;;;5054280;28;20017;-84
2021/08/29 05:21:31;;;;;;;2.72;2.60;;;16.10;66.20;;;;;;5053408;28;20021;-86
2021/08/29 05:23:58;;;;;;;2.60;2.50;;;16.20;66.30;;;;;;5059114;28;20382;-86
2021/08/29 05:26:24;;;;;;;3.30;3.00;;;16.10;66.30;;;;;;5057202;28;20390;-85
2021/08/29 05:28:50;;;;;;;31.27;4.57;;;16.20;66.40;;;;;;5039390;28;20025;-84
2021/08/29 05:31:16;;;;;;;2.42;2.33;;;16.10;66.40;;;;;;5055984;28;20029;-83
2021/08/29 05:33:42;;;;;;;3.40;3.15;;;16.10;66.40;;;;;;5052835;28;20048;-85
2021/08/29 05:36:08;;;;;;;3.00;2.88;;;16.10;66.60;;;;;;5058760;28;20036;-84
2021/08/29 05:38:34;;;;;;;2.78;2.67;;;16.10;66.70;;;;;;5056813;28;20077;-85
2021/08/29 05:41:00;;;;;;;2.65;2.55;;;16.10;66.70;;;;;;5053791;28;20025;-84
2021/08/29 05:43:26;;;;;;;3.03;2.90;;;16.10;66.70;;;;;;5056868;28;20029;-85
2021/08/29 05:45:53;;;;;;;2.85;2.65;;;16.10;66.80;;;;;;5051776;28;20037;-85
2021/08/29 05:48:19;;;;;;;2.95;2.75;;;16.10;66.90;;;;;;5057400;28;20032;-85
2021/08/29 05:50:45;;;;;;;2.67;2.58;;;16.10;66.90;;;;;;5055521;28;20025;-85
2021/08/29 05:53:11;;;;;;;2.70;2.60;;;16.10;66.90;;;;;;5056624;28;20028;-84
2021/08/29 05:55:37;;;;;;;3.20;2.70;;;16.10;66.90;;;;;;5054984;28;20044;-84
2021/08/29 05:58:04;;;;;;;2.80;2.70;;;16.10;67.00;;;;;;5054230;28;20033;-84
2021/08/29 06:00:30;;;;;;;2.92;2.72;;;16.10;66.90;;;;;;5036520;28;20033;-84
2021/08/29 06:02:56;;;;;;;3.17;2.88;;;16.10;66.90;;;;;;5090619;28;20025;-85
2021/08/29 06:05:22;;;;;;;2.60;2.50;;;16.20;66.90;;;;;;5055068;28;20017;-85
2021/08/29 06:07:48;;;;;;;2.72;2.63;;;16.20;66.80;;;;;;5055081;28;20036;-86
2021/08/29 06:10:14;;;;;;;2.83;2.72;;;16.20;66.80;;;;;;5055328;28;20047;-84
2021/08/29 06:12:40;;;;;;;2.67;2.58;;;16.30;66.90;;;;;;5051398;28;20040;-85
2021/08/29 06:15:07;;;;;;;2.53;2.42;;;16.40;66.80;;;;;;5056333;28;20024;-85
2021/08/29 06:17:33;;;;;;;2.78;2.58;;;16.50;66.50;;;;;;5054939;28;20036;-85
2021/08/29 06:19:59;;;;;;;3.45;2.65;;;16.70;66.30;;;;;;5053423;28;20029;-83
2021/08/29 06:22:25;;;;;;;3.28;3.03;;;16.80;66.20;;;;;;5038403;28;20024;-84
2021/08/29 06:24:51;;;;;;;3.00;2.90;;;16.90;65.90;;;;;;5052021;28;20040;-85
2021/08/29 06:27:17;;;;;;;4.30;3.10;;;17.10;65.80;;;;;;5056039;28;20036;-84
2021/08/29 06:29:43;;;;;;;2.80;2.70;;;17.20;65.60;;;;;;5055138;28;20033;-84
2021/08/29 06:32:09;;;;;;;3.58;3.28;;;17.30;65.60;;;;;;5038763;28;20044;-84
2021/08/29 06:34:35;;;;;;;2.95;2.85;;;17.30;65.70;;;;;;5055752;28;20047;-84
2021/08/29 06:37:02;;;;;;;3.03;2.83;;;17.40;65.60;;;;;;5053396;28;20039;-84
2021/08/29 06:39:28;;;;;;;3.38;3.17;;;17.40;65.70;;;;;;5053896;28;20021;-85
2021/08/29 06:41:54;;;;;;;3.40;3.28;;;17.40;65.90;;;;;;5055425;28;20486;-85
2021/08/29 06:44:20;;;;;;;2.97;2.88;;;17.40;66.00;;;;;;5054619;28;20032;-84
2021/08/29 06:46:46;;;;;;;3.35;3.22;;;17.30;66.30;;;;;;5055283;28;20037;-84
2021/08/29 06:49:12;;;;;;;2.65;2.53;;;17.20;66.70;;;;;;5053508;28;20047;-84
2021/08/29 06:51:38;;;;;;;2.47;2.38;;;17.10;67.10;;;;;;5051917;28;20041;-84
2021/08/29 06:54:04;;;;;;;2.50;2.40;;;17.00;67.60;;;;;;5039744;28;20504;-84
2021/08/29 06:56:30;;;;;;;2.90;2.80;;;16.90;67.90;;;;;;5055342;28;20047;-85
2021/08/29 06:58:56;;;;;;;3.15;2.95;;;16.80;68.40;;;;;;5053732;28;20423;-85
2021/08/29 07:01:22;;;;;;;3.20;3.10;;;16.70;68.60;;;;;;5054828;28;20043;-84
2021/08/29 07:03:49;;;;;;;3.15;3.05;;;16.70;68.80;;;;;;5049924;28;20025;-84
2021/08/29 07:06:15;;;;;;;2.78;2.67;;;16.70;68.80;;;;;;5057012;28;20390;-84
2021/08/29 07:08:41;;;;;;;3.38;3.17;;;16.70;68.80;;;;;;5053429;28;20036;-85
2021/08/29 07:11:07;;;;;;;3.58;3.38;;;16.70;68.90;;;;;;5055241;28;20485;-85
2021/08/29 07:13:33;;;;;;;3.63;3.42;;;16.70;69.00;;;;;;5055165;28;20020;-85
2021/08/29 07:15:59;;;;;;;3.75;3.55;;;16.60;69.20;;;;;;5051822;28;20025;-84
2021/08/29 07:18:25;;;;;;;3.15;3.05;;;16.60;69.50;;;;;;5053434;28;20036;-84
2021/08/29 07:20:51;;;;;;;3.60;3.38;;;16.60;69.50;;;;;;5056082;28;20032;-85
2021/08/29 07:23:18;;;;;;;3.28;3.08;;;16.60;69.50;;;;;;5054640;28;20032;-85
2021/08/29 07:25:44;;;;;;;3.38;3.25;;;16.70;69.40;;;;;;5055067;28;20036;-84
2021/08/29 07:28:10;;;;;;;3.53;3.33;;;16.70;69.20;;;;;;5052398;28;20032;-84
2021/08/29 07:30:36;;;;;;;3.65;3.47;;;16.80;69.10;;;;;;5051228;28;20029;-85
2021/08/29 07:33:02;;;;;;;3.63;3.42;;;16.80;69.00;;;;;;5055451;28;20021;-84
2021/08/29 07:35:28;;;;;;;3.75;3.55;;;16.80;68.90;;;;;;5053504;28;20402;-85
2021/08/29 07:37:54;;;;;;;4.10;3.85;;;16.80;68.90;;;;;;5051842;28;20029;-85
2021/08/29 07:40:20;;;;;;;3.75;3.45;;;16.90;68.90;;;;;;5053595;28;20037;-84
2021/08/29 07:42:47;;;;;;;3.97;3.78;;;17.00;68.90;;;;;;5049527;28;20033;-85
2021/08/29 07:45:13;;;;;;;3.95;3.53;;;17.00;68.80;;;;;;5062219;28;20033;-85
2021/08/29 07:47:39;;;;;;;3.13;3.03;;;17.10;68.70;;;;;;5053935;28;20046;-83
2021/08/29 07:50:06;;;;;;;2.80;2.70;;;17.10;68.50;;;;;;5054763;28;20083;-83
2021/08/29 07:52:32;;;;;;;3.10;2.97;;;17.30;68.30;;;;;;5054940;28;20039;-85
2021/08/29 07:54:58;;;;;;;3.60;3.30;;;17.40;68.10;;;;;;5054950;28;20041;-86
2021/08/29 07:57:24;;;;;;;3.38;3.22;;;17.40;68.10;;;;;;5058166;28;20033;-85
2021/08/29 07:59:50;;;;;;;3.30;3.17;;;17.50;68.20;;;;;;5091836;28;20032;-84
2021/08/29 08:02:16;;;;;;;3.10;2.97;;;17.50;68.20;;;;;;5058187;28;20037;-85
2021/08/29 08:04:43;;;;;;;3.50;3.30;;;17.60;68.00;;;;;;5058525;28;20021;-85
2021/08/29 08:07:11;;;;;;;3.08;2.97;;;17.60;67.80;;;;;;5056792;28;20025;-85
2021/08/29 08:09:37;;;;;;;3.38;3.17;;;17.70;67.70;;;;;;5054269;28;20033;-85
2021/08/29 08:12:04;;;;;;;3.53;3.15;;;17.80;67.50;;;;;;5060355;28;20409;-86
2021/08/29 08:14:30;;;;;;;3.25;3.15;;;17.90;67.40;;;;;;5056943;28;20486;-84
2021/08/29 08:16:56;;;;;;;2.88;2.78;;;17.90;67.30;;;;;;5056432;28;20041;-84
2021/08/29 08:19:22;;;;;;;3.30;3.20;;;18.00;67.40;;;;;;5040615;28;20043;-84
2021/08/29 08:21:48;;;;;;;3.30;3.10;;;18.10;67.20;;;;;;5054117;28;20502;-86
2021/08/29 08:24:14;;;;;;;3.80;3.60;;;18.30;66.90;;;;;;5059032;28;20040;-85
2021/08/29 08:26:40;;;;;;;3.40;3.20;;;18.40;66.70;;;;;;5056805;28;20039;-79
2021/08/29 08:29:06;;;;;;;3.22;3.03;;;18.50;66.60;;;;;;5058220;28;20025;-85
2021/08/29 08:31:33;;;;;;;4.00;3.70;;;18.50;66.50;;;;;;5041415;28;20033;-84
2021/08/29 08:33:59;;;;;;;3.33;3.15;;;18.50;66.40;;;;;;5055177;28;20037;-84
2021/08/29 08:36:25;;;;;;;3.53;3.33;;;18.50;66.40;;;;;;5039369;28;20037;-84
2021/08/29 08:38:51;;;;;;;3.70;3.50;;;18.60;66.40;;;;;;5057658;28;20041;-85
2021/08/29 08:41:20;;;;;;;4.38;4.18;;;18.60;66.20;;;;;;5057818;28;20029;-85
2021/08/29 08:43:46;;;;;;;4.90;4.50;;;18.80;66.10;;;;;;5057857;28;20489;-84
2021/08/29 08:46:12;;;;;;;5.05;4.85;;;18.80;65.90;;;;;;5056330;28;20033;-86
2021/08/29 08:48:39;;;;;;;4.22;4.03;;;18.90;66.10;;;;;;5053925;28;20041;-83
2021/08/29 08:51:07;;;;;;;3.88;3.67;;;18.90;65.80;;;;;;5059739;28;20369;-84
2021/08/29 08:53:33;;;;;;;5.57;5.18;;;18.90;65.70;;;;;;5057743;28;20135;-85
2021/08/29 08:55:59;;;;;;;5.38;5.07;;;19.00;65.60;;;;;;5038351;28;20037;-85
2021/08/29 08:58:26;;;;;;;4.53;4.32;;;19.10;65.50;;;;;;5039922;28;20025;-84
2021/08/29 09:00:52;;;;;;;5.20;4.80;;;19.10;65.40;;;;;;5020109;28;20037;-85
2021/08/29 09:03:20;;;;;;;5.65;5.22;;;19.20;65.50;;;;;;5040441;28;20032;-86
2021/08/29 09:05:46;;;;;;;3.88;3.67;;;19.30;65.20;;;;;;5040913;28;20044;-85
2021/08/29 09:08:12;;;;;;;3.67;3.47;;;19.30;65.00;;;;;;5056309;28;20055;-85
2021/08/29 09:10:38;;;;;;;4.53;4.20;;;19.40;64.90;;;;;;5057401;28;20036;-85
2021/08/29 09:13:05;;;;;;;4.07;3.70;;;19.30;64.90;;;;;;5054220;28;20486;-84
2021/08/29 09:15:31;;;;;;;3.42;3.33;;;19.30;64.90;;;;;;5054733;28;20033;-85
2021/08/29 09:17:58;;;;;;;3.80;3.60;;;19.40;64.80;;;;;;5056957;28;20048;-86
2021/08/29 09:20:36;;;;;;;4.00;3.80;;;19.50;64.50;;;;;;5039544;28;20051;-84
2021/08/29 09:23:07;;;;;;;3.90;3.70;;;19.70;64.30;;;;;;5057086;28;20032;-85
2021/08/29 09:25:40;;;;;;;3.97;3.78;;;19.70;64.10;;;;;;5056131;28;20055;-85
2021/08/29 09:28:09;;;;;;;3.90;3.70;;;19.90;64.00;;;;;;5054214;28;20033;-85
2021/08/29 09:30:35;;;;;;;6.55;4.82;;;20.10;63.50;;;;;;5053761;28;20033;-85
2021/08/29 09:33:02;;;;;;;5.68;5.28;;;20.40;63.00;;;;;;5057400;28;20469;-85
2021/08/29 09:35:31;;;;;;;7.22;6.90;;;20.70;62.50;;;;;;5055829;28;20051;-83
2021/08/29 09:37:57;;;;;;;4.85;4.55;;;21.10;61.90;;;;;;5055388;28;20056;-84
2021/08/29 09:40:30;;;;;;;5.22;4.93;;;21.30;61.30;;;;;;5057016;28;20461;-85
2021/08/29 09:42:57;;;;;;;5.63;5.32;;;21.50;60.90;;;;;;5034969;28;20037;-84
2021/08/29 09:45:41;;;;;;;5.57;5.28;;;21.50;60.70;;;;;;5056218;28;20041;-83
2021/08/29 09:48:08;;;;;;;5.03;4.82;;;21.60;60.40;;;;;;5056264;28;20043;-82
2021/08/29 09:50:37;;;;;;;6.75;5.97;;;21.60;60.30;;;;;;5055453;28;20021;-83
2021/08/29 09:53:17;;;;;;;6.15;5.85;;;21.70;60.10;;;;;;5055452;28;20029;-83
2021/08/29 09:55:44;;;;;;;6.40;5.97;;;21.90;59.80;;;;;;5056935;28;20040;-83
2021/08/29 09:58:33;;;;;;;7.03;6.63;;;22.10;59.60;;;;;;5055178;28;20040;-83
2021/08/29 10:01:12;;;;;;;6.93;6.63;;;22.40;59.20;;;;;;5037883;28;20040;-83
2021/08/29 10:03:42;;;;;;;7.10;6.72;;;22.50;58.80;;;;;;5053124;28;20040;-83
2021/08/29 10:06:29;;;;;;;7.43;7.03;;;22.50;58.50;;;;;;5057311;28;20386;-83
2021/08/29 10:08:59;;;;;;;7.57;7.18;;;22.50;58.60;;;;;;5056625;28;20033;-85
2021/08/29 10:11:26;;;;;;;6.80;6.50;;;22.50;58.60;;;;;;5038685;28;20469;-85
2021/08/29 10:13:53;;;;;;;6.63;6.32;;;22.40;58.70;;;;;;5054585;28;20037;-85
2021/08/29 10:16:21;;;;;;;6.70;6.40;;;22.30;58.80;;;;;;5053124;28;20037;-84
2021/08/29 10:18:47;;;;;;;6.90;6.53;;;22.10;58.80;;;;;;5033383;28;20028;-85
2021/08/29 10:21:16;;;;;;;6.28;5.97;;;21.90;59.00;;;;;;5058072;28;20041;-85
2021/08/29 10:23:46;;;;;;;6.20;5.90;;;21.80;59.00;;;;;;5053507;28;20033;-83
2021/08/29 10:26:13;;;;;;;6.22;5.93;;;21.80;58.90;;;;;;5055008;28;20029;-83
2021/08/29 10:28:44;;;;;;;5.65;5.35;;;21.80;58.90;;;;;;5038346;28;20392;-83
2021/08/29 10:31:11;;;;;;;6.13;5.82;;;21.80;58.60;;;;;;5052776;28;20036;-83
2021/08/29 10:33:39;;;;;;;6.28;5.97;;;22.00;58.50;;;;;;5034851;28;20057;-83
2021/08/29 10:36:07;;;;;;;6.60;6.05;;;22.20;58.10;;;;;;5056362;28;20021;-83
2021/08/29 10:38:34;;;;;;;6.20;5.90;;;22.30;57.60;;;;;;5038140;28;20056;-83
2021/08/29 10:41:00;;;;;;;5.95;5.65;;;22.20;57.60;;;;;;5054013;28;20032;-84
2021/08/29 10:43:28;;;;;;;6.50;6.10;;;22.10;57.60;;;;;;5054523;28;20031;-83
2021/08/29 10:45:54;;;;;;;6.00;5.70;;;22.10;57.60;;;;;;5035088;28;20033;-83
2021/08/29 10:48:20;;;;;;;5.82;5.53;;;22.30;57.40;;;;;;5055027;28;20029;-83
2021/08/29 10:50:47;;;;;;;6.07;5.78;;;22.30;57.10;;;;;;5055812;28;20028;-83
2021/08/29 10:53:33;;;;;;;5.75;5.45;;;22.20;56.90;;;;;;5052734;28;20378;-83
2021/08/29 10:56:14;;;;;;;6.00;5.70;;;22.10;57.00;;;;;;5055404;28;20056;-84
2021/08/29 10:58:44;;;;;;;5.90;5.50;;;22.00;56.90;;;;;;5055452;28;20052;-84
2021/08/29 11:01:42;;;;;;;5.95;5.65;;;22.00;56.90;;;;;;5050629;28;20021;-83
2021/08/29 11:04:17;;;;;;;5.90;5.60;;;22.00;56.70;;;;;;5039527;28;20024;-83
2021/08/29 11:06:44;;;;;;;5.70;5.40;;;22.00;56.60;;;;;;5051182;28;20029;-82
2021/08/29 11:09:29;;;;;;;5.93;5.63;;;22.00;56.30;;;;;;5055978;28;20021;-84
2021/08/29 11:11:55;;;;;;;5.72;5.45;;;22.10;56.10;;;;;;5056662;28;20033;-83
2021/08/29 11:14:44;;;;;;;5.80;5.50;;;22.20;55.90;;;;;;5054878;28;20021;-83
2021/08/29 11:17:13;;;;;;;5.95;5.65;;;22.30;55.60;;;;;;5054633;28;20056;-84
2021/08/29 11:19:40;;;;;;;6.65;6.25;;;22.30;55.40;;;;;;5053937;28;20021;-86
2021/08/29 11:22:08;;;;;;;6.47;6.18;;;22.20;55.20;;;;;;5053154;28;20033;-84
2021/08/29 11:24:49;;;;;;;6.20;5.90;;;22.10;55.20;;;;;;5052038;28;20029;-86
2021/08/29 11:27:34;;;;;;;6.13;5.82;;;22.10;55.30;;;;;;5064221;28;20036;-85
2021/08/29 11:30:16;;;;;;;6.35;6.05;;;22.00;55.20;;;;;;5054753;28;20033;-84
2021/08/29 11:33:23;;;;;;;5.95;5.65;;;21.90;55.20;;;;;;5051415;28;20037;-83
2021/08/29 11:35:50;;;;;;;5.75;5.45;;;21.90;55.30;;;;;;4992794;28;20042;-84
2021/08/29 11:38:32;;;;;;;5.80;5.50;;;21.80;55.00;;;;;;5027041;28;20581;-84
2021/08/29 11:41:01;;;;;;;5.80;5.50;;;21.80;55.20;;;;;;5013886;28;20145;-84
2021/08/29 11:43:27;;;;;;;6.20;5.80;;;21.80;55.10;;;;;;4997779;28;20036;-85
2021/08/29 11:46:02;;;;;;;6.07;5.78;;;21.70;55.10;;;;;;5010129;28;20041;-82
2021/08/29 11:48:31;;;;;;;5.93;5.63;;;21.80;55.10;;;;;;4995712;28;20391;-85
2021/08/29 11:50:57;;;;;;;6.13;5.57;;;21.90;55.00;;;;;;4996233;28;20030;-84
2021/08/29 11:53:23;;;;;;;6.03;5.72;;;22.00;54.80;;;;;;4997214;28;20046;-84
2021/08/29 11:56:18;;;;;;;6.60;6.25;;;22.10;54.50;;;;;;5014124;28;20026;-82
2021/08/29 11:58:45;;;;;;;6.20;5.90;;;22.30;54.70;;;;;;5011612;28;20518;-84
2021/08/29 12:01:12;;;;;;;6.10;5.80;;;22.30;53.90;;;;;;4996185;28;20040;-86
2021/08/29 12:03:38;;;;;;;5.85;5.55;;;22.30;53.90;;;;;;4993726;28;20054;-85
2021/08/29 12:06:23;;;;;;;6.18;5.88;;;22.30;53.90;;;;;;4998249;28;20041;-84
2021/08/29 12:08:55;;;;;;;5.97;5.68;;;22.30;53.90;;;;;;5013773;28;20049;-85
2021/08/29 12:11:21;;;;;;;5.80;5.50;;;22.30;53.90;;;;;;5035259;28;20048;-84
2021/08/29 12:13:47;;;;;;;7.10;6.78;;;22.30;53.90;;;;;;5053056;28;20486;-85
2021/08/29 12:16:13;;;;;;;5.38;5.18;;;22.30;53.80;;;;;;5035482;28;20044;-85
2021/08/29 12:18:39;;;;;;;5.30;5.05;;;22.40;53.70;;;;;;5033036;28;20036;-84
2021/08/29 12:21:07;;;;;;;6.38;5.85;;;22.40;53.60;;;;;;5070843;28;20036;-85
2021/08/29 12:23:34;;;;;;;5.82;5.53;;;22.40;53.50;;;;;;5053128;28;20041;-84
2021/08/29 12:26:08;;;;;;;6.55;6.25;;;22.50;53.20;;;;;;5053471;28;20029;-84
2021/08/29 12:28:35;;;;;;;6.28;5.97;;;22.60;53.10;;;;;;5037291;28;20024;-85
2021/08/29 12:31:02;;;;;;;6.30;6.00;;;22.60;53.00;;;;;;5034132;28;20037;-85
2021/08/29 12:33:28;;;;;;;6.18;5.88;;;22.70;53.00;;;;;;5052750;28;20040;-84
2021/08/29 12:35:55;;;;;;;5.97;5.68;;;22.70;53.00;;;;;;5088140;28;20370;-86
2021/08/29 12:38:28;;;;;;;5.88;5.57;;;22.90;52.80;;;;;;5053092;28;20493;-85
2021/08/29 12:40:56;;;;;;;5.78;5.47;;;23.00;53.10;;;;;;5039882;28;20025;-85
2021/08/29 12:43:24;;;;;;;5.68;5.40;;;23.20;52.20;;;;;;5058427;28;20491;-84
2021/08/29 12:45:50;;;;;;;5.60;5.30;;;23.40;52.00;;;;;;5052216;28;20038;-85
2021/08/29 12:48:16;;;;;;;6.05;5.75;;;23.40;51.80;;;;;;5059381;28;20033;-85
2021/08/29 12:50:51;;;;;;;5.45;5.25;;;23.40;51.70;;;;;;5056370;28;20478;-85
2021/08/29 12:53:19;;;;;;;5.70;5.40;;;23.40;51.80;;;;;;5040517;28;20028;-85